sensor_id;sensor_type;location;lat;lon;timestamp;P1;durP1;ratioP1;P2;durP2;ratioP2
12177;SDS011;6152;48.728;9.256;2023-04-25T00:02:03;2.40;;;1.98;;
12177;SDS011;6152;48.728;9.256;2023-04-25T00:04:30;2.38;;;2.10;;
12177;SDS011;6152;48.728;9.256;2023-04-25T00:06:59;5.57;;;3.70;;
12177;SDS011;6152;48.728;9.256;2023-04-25T00:09:28;2.92;;;2.03;;
12177;SDS011;6152;48.728;9.256;2023-04-25T00:11:54;2.83;;;2.15;;
12177;SDS011;6152;48.728;9.256;2023-04-25T00:14:21;2.08;;;1.88;;
12177;SDS011;6152;48.728;9.256;2023-04-25T00:16:48;3.40;;;2.45;;
12177;SDS011;6152;48.728;9.256;2023-04-25T00:19:16;2.05;;;1.83;;
12177;SDS011;6152;48.728;9.256;2023-04-25T00:21:42;3.75;;;1.95;;
12177;SDS011;6152;48.728;9.256;2023-04-25T00:24:11;2.15;;;1.98;;
12177;SDS011;6152;48.728;9.256;2023-04-25T00:26:37;4.78;;;2.10;;
12177;SDS011;6152;48.728;9.256;2023-04-25T00:29:04;3.40;;;2.03;;
12177;SDS011;6152;48.728;9.256;2023-04-25T00:31:30;2.33;;;2.13;;
12177;SDS011;6152;48.728;9.256;2023-04-25T00:33:56;3.45;;;2.17;;
12177;SDS011;6152;48.728;9.256;2023-04-25T00:36:22;3.20;;;2.13;;
12177;SDS011;6152;48.728;9.256;2023-04-25T00:38:48;2.60;;;2.10;;
12177;SDS011;6152;48.728;9.256;2023-04-25T00:41:14;2.67;;;2.40;;
12177;SDS011;6152;48.728;9.256;2023-04-25T00:43:40;3.70;;;2.47;;
12177;SDS011;6152;48.728;9.256;2023-04-25T00:46:09;3.60;;;2.40;;
12177;SDS011;6152;48.728;9.256;2023-04-25T00:48:35;3.40;;;2.60;;
12177;SDS011;6152;48.728;9.256;2023-04-25T00:51:01;3.40;;;2.45;;
12177;SDS011;6152;48.728;9.256;2023-04-25T00:53:27;2.65;;;2.45;;
12177;SDS011;6152;48.728;9.256;2023-04-25T00:55:55;2.83;;;2.55;;
12177;SDS011;6152;48.728;9.256;2023-04-25T00:58:21;3.15;;;2.83;;
12177;SDS011;6152;48.728;9.256;2023-04-25T01:00:48;3.47;;;2.63;;
12177;SDS011;6152;48.728;9.256;2023-04-25T01:03:17;2.47;;;2.28;;
12177;SDS011;6152;48.728;9.256;2023-04-25T01:05:45;4.03;;;2.38;;
12177;SDS011;6152;48.728;9.256;2023-04-25T01:08:13;2.70;;;2.50;;
12177;SDS011;6152;48.728;9.256;2023-04-25T01:10:39;2.60;;;2.20;;
12177;SDS011;6152;48.728;9.256;2023-04-25T01:13:06;3.88;;;2.60;;
12177;SDS011;6152;48.728;9.256;2023-04-25T01:15:32;2.70;;;2.47;;
12177;SDS011;6152;48.728;9.256;2023-04-25T01:18:00;5.13;;;2.80;;
12177;SDS011;6152;48.728;9.256;2023-04-25T01:20:26;2.33;;;2.10;;
12177;SDS011;6152;48.728;9.256;2023-04-25T01:22:53;3.63;;;2.33;;
12177;SDS011;6152;48.728;9.256;2023-04-25T01:25:21;3.00;;;2.30;;
12177;SDS011;6152;48.728;9.256;2023-04-25T01:27:48;4.15;;;2.75;;
12177;SDS011;6152;48.728;9.256;2023-04-25T01:30:14;2.95;;;2.65;;
12177;SDS011;6152;48.728;9.256;2023-04-25T01:32:41;4.43;;;2.28;;
12177;SDS011;6152;48.728;9.256;2023-04-25T01:35:08;4.53;;;3.03;;
12177;SDS011;6152;48.728;9.256;2023-04-25T01:37:39;3.38;;;2.58;;
12177;SDS011;6152;48.728;9.256;2023-04-25T01:40:06;3.20;;;2.45;;
12177;SDS011;6152;48.728;9.256;2023-04-25T01:42:34;5.57;;;2.60;;
12177;SDS011;6152;48.728;9.256;2023-04-25T01:45:02;3.85;;;2.80;;
12177;SDS011;6152;48.728;9.256;2023-04-25T01:47:29;3.97;;;2.85;;
12177;SDS011;6152;48.728;9.256;2023-04-25T01:49:55;2.85;;;2.55;;
12177;SDS011;6152;48.728;9.256;2023-04-25T01:52:21;2.97;;;2.38;;
12177;SDS011;6152;48.728;9.256;2023-04-25T01:54:47;2.72;;;2.53;;
12177;SDS011;6152;48.728;9.256;2023-04-25T01:57:15;3.40;;;2.60;;
12177;SDS011;6152;48.728;9.256;2023-04-25T01:59:41;3.30;;;2.67;;
12177;SDS011;6152;48.728;9.256;2023-04-25T02:02:08;4.03;;;2.35;;
12177;SDS011;6152;48.728;9.256;2023-04-25T02:04:34;2.97;;;2.60;;
12177;SDS011;6152;48.728;9.256;2023-04-25T02:07:00;2.20;;;2.00;;
12177;SDS011;6152;48.728;9.256;2023-04-25T02:09:28;3.25;;;2.00;;
12177;SDS011;6152;48.728;9.256;2023-04-25T02:11:54;2.45;;;1.88;;
12177;SDS011;6152;48.728;9.256;2023-04-25T02:14:20;3.13;;;1.80;;
12177;SDS011;6152;48.728;9.256;2023-04-25T02:16:46;2.67;;;1.60;;
12177;SDS011;6152;48.728;9.256;2023-04-25T02:19:13;3.17;;;2.00;;
12177;SDS011;6152;48.728;9.256;2023-04-25T02:21:39;1.85;;;1.30;;
12177;SDS011;6152;48.728;9.256;2023-04-25T02:24:05;1.85;;;1.27;;
12177;SDS011;6152;48.728;9.256;2023-04-25T02:26:32;3.42;;;1.38;;
12177;SDS011;6152;48.728;9.256;2023-04-25T02:28:58;3.25;;;1.67;;
12177;SDS011;6152;48.728;9.256;2023-04-25T02:31:24;3.10;;;1.52;;
12177;SDS011;6152;48.728;9.256;2023-04-25T02:33:51;2.35;;;1.58;;
12177;SDS011;6152;48.728;9.256;2023-04-25T02:36:17;2.05;;;1.35;;
12177;SDS011;6152;48.728;9.256;2023-04-25T02:38:43;1.70;;;1.50;;
12177;SDS011;6152;48.728;9.256;2023-04-25T02:41:09;1.73;;;1.55;;
12177;SDS011;6152;48.728;9.256;2023-04-25T02:43:35;2.22;;;1.48;;
12177;SDS011;6152;48.728;9.256;2023-04-25T02:46:01;2.35;;;1.52;;
12177;SDS011;6152;48.728;9.256;2023-04-25T02:48:28;1.92;;;1.70;;
12177;SDS011;6152;48.728;9.256;2023-04-25T02:50:54;2.13;;;1.70;;
12177;SDS011;6152;48.728;9.256;2023-04-25T02:53:20;2.58;;;1.58;;
12177;SDS011;6152;48.728;9.256;2023-04-25T02:55:46;1.73;;;1.42;;
12177;SDS011;6152;48.728;9.256;2023-04-25T02:58:12;2.95;;;1.88;;
12177;SDS011;6152;48.728;9.256;2023-04-25T03:00:40;2.10;;;1.40;;
12177;SDS011;6152;48.728;9.256;2023-04-25T03:03:06;2.47;;;1.73;;
12177;SDS011;6152;48.728;9.256;2023-04-25T03:05:32;1.40;;;1.30;;
12177;SDS011;6152;48.728;9.256;2023-04-25T03:07:58;2.30;;;1.55;;
12177;SDS011;6152;48.728;9.256;2023-04-25T03:10:24;2.13;;;1.42;;
12177;SDS011;6152;48.728;9.256;2023-04-25T03:12:51;2.80;;;1.80;;
12177;SDS011;6152;48.728;9.256;2023-04-25T03:15:17;1.70;;;1.58;;
12177;SDS011;6152;48.728;9.256;2023-04-25T03:17:43;2.50;;;1.80;;
12177;SDS011;6152;48.728;9.256;2023-04-25T03:20:10;3.40;;;2.15;;
12177;SDS011;6152;48.728;9.256;2023-04-25T03:22:36;4.15;;;1.50;;
12177;SDS011;6152;48.728;9.256;2023-04-25T03:25:02;4.35;;;1.40;;
12177;SDS011;6152;48.728;9.256;2023-04-25T03:27:29;1.95;;;1.70;;
12177;SDS011;6152;48.728;9.256;2023-04-25T03:29:55;3.25;;;1.67;;
12177;SDS011;6152;48.728;9.256;2023-04-25T03:32:22;1.40;;;1.30;;
12177;SDS011;6152;48.728;9.256;2023-04-25T03:34:48;1.40;;;1.30;;
12177;SDS011;6152;48.728;9.256;2023-04-25T03:37:14;2.10;;;1.63;;
12177;SDS011;6152;48.728;9.256;2023-04-25T03:39:40;1.60;;;1.50;;
12177;SDS011;6152;48.728;9.256;2023-04-25T03:42:06;2.17;;;1.63;;
12177;SDS011;6152;48.728;9.256;2023-04-25T03:44:32;1.65;;;1.35;;
12177;SDS011;6152;48.728;9.256;2023-04-25T03:46:58;1.63;;;1.52;;
12177;SDS011;6152;48.728;9.256;2023-04-25T03:49:24;1.85;;;1.75;;
12177;SDS011;6152;48.728;9.256;2023-04-25T03:51:51;1.50;;;1.40;;
12177;SDS011;6152;48.728;9.256;2023-04-25T03:54:17;1.83;;;1.40;;
12177;SDS011;6152;48.728;9.256;2023-04-25T03:56:43;2.33;;;2.13;;
12177;SDS011;6152;48.728;9.256;2023-04-25T03:59:09;2.17;;;1.88;;
12177;SDS011;6152;48.728;9.256;2023-04-25T04:01:35;2.95;;;2.40;;
12177;SDS011;6152;48.728;9.256;2023-04-25T04:04:01;1.80;;;1.70;;
12177;SDS011;6152;48.728;9.256;2023-04-25T04:06:27;2.38;;;2.17;;
12177;SDS011;6152;48.728;9.256;2023-04-25T04:08:54;2.13;;;1.85;;
12177;SDS011;6152;48.728;9.256;2023-04-25T04:11:20;3.35;;;1.73;;
12177;SDS011;6152;48.728;9.256;2023-04-25T04:13:46;2.63;;;1.90;;
12177;SDS011;6152;48.728;9.256;2023-04-25T04:16:12;2.25;;;1.85;;
12177;SDS011;6152;48.728;9.256;2023-04-25T04:18:38;1.90;;;1.75;;
12177;SDS011;6152;48.728;9.256;2023-04-25T04:21:04;2.58;;;1.83;;
12177;SDS011;6152;48.728;9.256;2023-04-25T04:23:31;4.28;;;2.03;;
12177;SDS011;6152;48.728;9.256;2023-04-25T04:25:57;3.95;;;1.92;;
12177;SDS011;6152;48.728;9.256;2023-04-25T04:28:23;5.43;;;2.22;;
12177;SDS011;6152;48.728;9.256;2023-04-25T04:30:50;1.88;;;1.77;;
12177;SDS011;6152;48.728;9.256;2023-04-25T04:33:17;2.78;;;2.30;;
12177;SDS011;6152;48.728;9.256;2023-04-25T04:35:44;4.28;;;1.90;;
12177;SDS011;6152;48.728;9.256;2023-04-25T04:38:11;2.10;;;1.88;;
12177;SDS011;6152;48.728;9.256;2023-04-25T04:40:40;3.53;;;2.30;;
12177;SDS011;6152;48.728;9.256;2023-04-25T04:43:08;6.05;;;2.88;;
12177;SDS011;6152;48.728;9.256;2023-04-25T04:45:35;2.67;;;2.10;;
12177;SDS011;6152;48.728;9.256;2023-04-25T04:48:04;3.70;;;2.38;;
12177;SDS011;6152;48.728;9.256;2023-04-25T04:50:31;6.30;;;3.13;;
12177;SDS011;6152;48.728;9.256;2023-04-25T04:52:57;3.45;;;2.63;;
12177;SDS011;6152;48.728;9.256;2023-04-25T04:55:23;3.40;;;2.70;;
12177;SDS011;6152;48.728;9.256;2023-04-25T04:57:50;3.65;;;2.38;;
12177;SDS011;6152;48.728;9.256;2023-04-25T05:00:16;4.63;;;2.42;;
12177;SDS011;6152;48.728;9.256;2023-04-25T05:02:43;2.47;;;2.28;;
12177;SDS011;6152;48.728;9.256;2023-04-25T05:05:09;2.45;;;2.15;;
12177;SDS011;6152;48.728;9.256;2023-04-25T05:07:35;2.22;;;2.08;;
12177;SDS011;6152;48.728;9.256;2023-04-25T05:10:01;2.55;;;2.30;;
12177;SDS011;6152;48.728;9.256;2023-04-25T05:12:28;2.42;;;2.10;;
12177;SDS011;6152;48.728;9.256;2023-04-25T05:14:55;3.10;;;1.73;;
12177;SDS011;6152;48.728;9.256;2023-04-25T05:17:21;2.80;;;2.20;;
12177;SDS011;6152;48.728;9.256;2023-04-25T05:19:47;3.97;;;2.60;;
12177;SDS011;6152;48.728;9.256;2023-04-25T05:22:13;5.63;;;2.05;;
12177;SDS011;6152;48.728;9.256;2023-04-25T05:24:40;3.13;;;2.33;;
12177;SDS011;6152;48.728;9.256;2023-04-25T05:27:06;3.45;;;2.33;;
12177;SDS011;6152;48.728;9.256;2023-04-25T05:29:32;4.40;;;2.70;;
12177;SDS011;6152;48.728;9.256;2023-04-25T05:31:58;2.97;;;2.08;;
12177;SDS011;6152;48.728;9.256;2023-04-25T05:34:34;2.92;;;2.25;;
12177;SDS011;6152;48.728;9.256;2023-04-25T05:37:00;6.00;;;3.00;;
12177;SDS011;6152;48.728;9.256;2023-04-25T05:39:26;3.38;;;2.33;;
12177;SDS011;6152;48.728;9.256;2023-04-25T05:41:52;3.03;;;2.30;;
12177;SDS011;6152;48.728;9.256;2023-04-25T05:44:18;4.25;;;2.80;;
12177;SDS011;6152;48.728;9.256;2023-04-25T05:46:44;2.88;;;2.17;;
12177;SDS011;6152;48.728;9.256;2023-04-25T05:49:11;2.40;;;2.20;;
12177;SDS011;6152;48.728;9.256;2023-04-25T05:51:37;2.60;;;2.40;;
12177;SDS011;6152;48.728;9.256;2023-04-25T05:54:03;3.22;;;2.80;;
12177;SDS011;6152;48.728;9.256;2023-04-25T05:56:29;5.93;;;2.80;;
12177;SDS011;6152;48.728;9.256;2023-04-25T05:58:55;3.47;;;2.17;;
12177;SDS011;6152;48.728;9.256;2023-04-25T06:01:22;3.35;;;2.38;;
12177;SDS011;6152;48.728;9.256;2023-04-25T06:03:48;4.50;;;2.40;;
12177;SDS011;6152;48.728;9.256;2023-04-25T06:06:16;2.97;;;2.53;;
12177;SDS011;6152;48.728;9.256;2023-04-25T06:08:42;4.45;;;2.78;;
12177;SDS011;6152;48.728;9.256;2023-04-25T06:11:08;4.40;;;2.55;;
12177;SDS011;6152;48.728;9.256;2023-04-25T06:13:34;2.20;;;2.10;;
12177;SDS011;6152;48.728;9.256;2023-04-25T06:16:00;3.60;;;2.13;;
12177;SDS011;6152;48.728;9.256;2023-04-25T06:18:26;3.03;;;2.50;;
12177;SDS011;6152;48.728;9.256;2023-04-25T06:20:52;4.20;;;2.72;;
12177;SDS011;6152;48.728;9.256;2023-04-25T06:23:18;3.38;;;2.33;;
12177;SDS011;6152;48.728;9.256;2023-04-25T06:25:45;2.25;;;2.05;;
12177;SDS011;6152;48.728;9.256;2023-04-25T06:28:11;4.03;;;2.30;;
12177;SDS011;6152;48.728;9.256;2023-04-25T06:30:37;2.45;;;2.25;;
12177;SDS011;6152;48.728;9.256;2023-04-25T06:33:03;3.33;;;2.50;;
12177;SDS011;6152;48.728;9.256;2023-04-25T06:35:29;2.45;;;2.17;;
12177;SDS011;6152;48.728;9.256;2023-04-25T06:37:55;2.42;;;2.10;;
12177;SDS011;6152;48.728;9.256;2023-04-25T06:40:22;2.53;;;1.77;;
12177;SDS011;6152;48.728;9.256;2023-04-25T06:42:48;2.95;;;2.10;;
12177;SDS011;6152;48.728;9.256;2023-04-25T06:45:14;2.40;;;2.15;;
12177;SDS011;6152;48.728;9.256;2023-04-25T06:47:40;2.70;;;2.40;;
12177;SDS011;6152;48.728;9.256;2023-04-25T06:50:06;4.13;;;2.30;;
12177;SDS011;6152;48.728;9.256;2023-04-25T06:52:33;4.03;;;1.92;;
12177;SDS011;6152;48.728;9.256;2023-04-25T06:54:59;3.85;;;3.55;;
12177;SDS011;6152;48.728;9.256;2023-04-25T06:57:25;3.20;;;2.75;;
12177;SDS011;6152;48.728;9.256;2023-04-25T06:59:51;3.40;;;2.28;;
12177;SDS011;6152;48.728;9.256;2023-04-25T07:02:17;5.45;;;2.20;;
12177;SDS011;6152;48.728;9.256;2023-04-25T07:04:43;2.70;;;2.50;;
12177;SDS011;6152;48.728;9.256;2023-04-25T07:07:11;2.45;;;2.25;;
12177;SDS011;6152;48.728;9.256;2023-04-25T07:09:37;2.80;;;2.42;;
12177;SDS011;6152;48.728;9.256;2023-04-25T07:12:03;2.50;;;2.30;;
12177;SDS011;6152;48.728;9.256;2023-04-25T07:14:29;5.78;;;2.55;;
12177;SDS011;6152;48.728;9.256;2023-04-25T07:16:56;4.05;;;2.50;;
12177;SDS011;6152;48.728;9.256;2023-04-25T07:19:22;2.47;;;2.28;;
12177;SDS011;6152;48.728;9.256;2023-04-25T07:21:54;3.60;;;2.40;;
12177;SDS011;6152;48.728;9.256;2023-04-25T07:24:20;2.63;;;2.42;;
12177;SDS011;6152;48.728;9.256;2023-04-25T07:26:46;2.67;;;2.38;;
12177;SDS011;6152;48.728;9.256;2023-04-25T07:29:12;2.63;;;2.20;;
12177;SDS011;6152;48.728;9.256;2023-04-25T07:31:39;3.45;;;2.50;;
12177;SDS011;6152;48.728;9.256;2023-04-25T07:34:05;2.70;;;2.33;;
12177;SDS011;6152;48.728;9.256;2023-04-25T07:36:31;5.22;;;2.67;;
12177;SDS011;6152;48.728;9.256;2023-04-25T07:38:57;3.38;;;2.50;;
12177;SDS011;6152;48.728;9.256;2023-04-25T07:41:23;3.22;;;2.22;;
12177;SDS011;6152;48.728;9.256;2023-04-25T07:43:49;2.80;;;2.60;;
12177;SDS011;6152;48.728;9.256;2023-04-25T07:46:15;3.45;;;3.00;;
12177;SDS011;6152;48.728;9.256;2023-04-25T07:48:42;3.60;;;3.20;;
12177;SDS011;6152;48.728;9.256;2023-04-25T07:51:08;4.68;;;3.40;;
12177;SDS011;6152;48.728;9.256;2023-04-25T07:53:34;3.58;;;2.85;;
12177;SDS011;6152;48.728;9.256;2023-04-25T07:56:02;3.75;;;3.10;;
12177;SDS011;6152;48.728;9.256;2023-04-25T07:58:28;3.65;;;3.30;;
12177;SDS011;6152;48.728;9.256;2023-04-25T08:00:54;5.82;;;3.92;;
12177;SDS011;6152;48.728;9.256;2023-04-25T08:03:20;4.25;;;3.13;;
12177;SDS011;6152;48.728;9.256;2023-04-25T08:05:46;3.67;;;3.15;;
12177;SDS011;6152;48.728;9.256;2023-04-25T08:08:13;3.60;;;3.28;;
12177;SDS011;6152;48.728;9.256;2023-04-25T08:10:40;3.75;;;3.35;;
12177;SDS011;6152;48.728;9.256;2023-04-25T08:13:07;4.05;;;3.28;;
12177;SDS011;6152;48.728;9.256;2023-04-25T08:15:33;4.78;;;3.75;;
12177;SDS011;6152;48.728;9.256;2023-04-25T08:17:59;4.60;;;3.65;;
12177;SDS011;6152;48.728;9.256;2023-04-25T08:20:25;4.32;;;3.78;;
12177;SDS011;6152;48.728;9.256;2023-04-25T08:22:51;4.97;;;3.92;;
12177;SDS011;6152;48.728;9.256;2023-04-25T08:25:17;3.90;;;3.30;;
12177;SDS011;6152;48.728;9.256;2023-04-25T08:27:44;5.88;;;4.30;;
12177;SDS011;6152;48.728;9.256;2023-04-25T08:30:10;4.88;;;4.20;;
12177;SDS011;6152;48.728;9.256;2023-04-25T08:32:36;5.32;;;3.30;;
12177;SDS011;6152;48.728;9.256;2023-04-25T08:35:05;3.90;;;3.20;;
12177;SDS011;6152;48.728;9.256;2023-04-25T08:37:32;6.18;;;4.00;;
12177;SDS011;6152;48.728;9.256;2023-04-25T08:39:58;4.90;;;4.00;;
12177;SDS011;6152;48.728;9.256;2023-04-25T08:42:24;6.80;;;4.30;;
12177;SDS011;6152;48.728;9.256;2023-04-25T08:44:53;5.40;;;4.25;;
12177;SDS011;6152;48.728;9.256;2023-04-25T08:47:21;5.05;;;4.07;;
12177;SDS011;6152;48.728;9.256;2023-04-25T08:49:48;4.32;;;3.63;;
12177;SDS011;6152;48.728;9.256;2023-04-25T08:52:21;5.30;;;4.10;;
12177;SDS011;6152;48.728;9.256;2023-04-25T08:54:49;4.70;;;4.15;;
12177;SDS011;6152;48.728;9.256;2023-04-25T08:57:16;5.50;;;3.97;;
12177;SDS011;6152;48.728;9.256;2023-04-25T08:59:43;5.38;;;4.57;;
12177;SDS011;6152;48.728;9.256;2023-04-25T09:02:11;5.60;;;4.20;;
12177;SDS011;6152;48.728;9.256;2023-04-25T09:04:42;7.78;;;4.43;;
12177;SDS011;6152;48.728;9.256;2023-04-25T09:07:09;9.88;;;4.60;;
12177;SDS011;6152;48.728;9.256;2023-04-25T09:09:35;5.90;;;4.15;;
12177;SDS011;6152;48.728;9.256;2023-04-25T09:12:01;5.85;;;4.22;;
12177;SDS011;6152;48.728;9.256;2023-04-25T09:14:27;6.57;;;4.95;;
12177;SDS011;6152;48.728;9.256;2023-04-25T09:19:24;8.57;;;4.90;;
12177;SDS011;6152;48.728;9.256;2023-04-25T09:21:56;5.78;;;4.80;;
12177;SDS011;6152;48.728;9.256;2023-04-25T09:24:30;7.22;;;5.15;;
12177;SDS011;6152;48.728;9.256;2023-04-25T09:27:07;6.03;;;4.13;;
12177;SDS011;6152;48.728;9.256;2023-04-25T09:29:35;7.93;;;6.45;;
12177;SDS011;6152;48.728;9.256;2023-04-25T09:32:17;11.10;;;4.57;;
12177;SDS011;6152;48.728;9.256;2023-04-25T09:34:48;8.10;;;4.45;;
12177;SDS011;6152;48.728;9.256;2023-04-25T09:37:19;8.07;;;5.03;;
12177;SDS011;6152;48.728;9.256;2023-04-25T09:39:55;4.60;;;4.18;;
12177;SDS011;6152;48.728;9.256;2023-04-25T09:42:24;5.40;;;4.90;;
12177;SDS011;6152;48.728;9.256;2023-04-25T09:44:55;6.00;;;4.25;;
12177;SDS011;6152;48.728;9.256;2023-04-25T09:47:25;5.53;;;4.55;;
12177;SDS011;6152;48.728;9.256;2023-04-25T09:49:52;6.18;;;4.82;;
12177;SDS011;6152;48.728;9.256;2023-04-25T09:52:20;6.57;;;4.35;;
12177;SDS011;6152;48.728;9.256;2023-04-25T09:54:50;6.78;;;4.38;;
12177;SDS011;6152;48.728;9.256;2023-04-25T09:57:18;7.28;;;4.00;;
12177;SDS011;6152;48.728;9.256;2023-04-25T09:59:47;5.78;;;4.13;;
12177;SDS011;6152;48.728;9.256;2023-04-25T10:02:18;4.43;;;3.63;;
12177;SDS011;6152;48.728;9.256;2023-04-25T10:04:48;4.85;;;3.75;;
12177;SDS011;6152;48.728;9.256;2023-04-25T10:07:20;6.07;;;3.90;;
12177;SDS011;6152;48.728;9.256;2023-04-25T10:09:50;4.97;;;3.60;;
12177;SDS011;6152;48.728;9.256;2023-04-25T10:12:27;8.27;;;4.00;;
12177;SDS011;6152;48.728;9.256;2023-04-25T10:14:54;4.65;;;3.30;;
12177;SDS011;6152;48.728;9.256;2023-04-25T10:17:21;8.27;;;3.38;;
12177;SDS011;6152;48.728;9.256;2023-04-25T10:19:48;3.55;;;2.80;;
12177;SDS011;6152;48.728;9.256;2023-04-25T10:22:34;3.00;;;2.30;;
12177;SDS011;6152;48.728;9.256;2023-04-25T10:25:07;3.40;;;3.10;;
12177;SDS011;6152;48.728;9.256;2023-04-25T10:27:34;2.72;;;2.53;;
12177;SDS011;6152;48.728;9.256;2023-04-25T10:30:04;3.10;;;2.45;;
12177;SDS011;6152;48.728;9.256;2023-04-25T10:32:37;3.53;;;2.40;;
12177;SDS011;6152;48.728;9.256;2023-04-25T10:35:36;2.03;;;1.88;;
12177;SDS011;6152;48.728;9.256;2023-04-25T10:40:24;1.77;;;1.25;;
12177;SDS011;6152;48.728;9.256;2023-04-25T10:42:54;2.08;;;1.35;;
12177;SDS011;6152;48.728;9.256;2023-04-25T10:45:21;1.75;;;1.10;;
12177;SDS011;6152;48.728;9.256;2023-04-25T10:47:47;1.85;;;1.48;;
12177;SDS011;6152;48.728;9.256;2023-04-25T10:50:16;2.55;;;1.25;;
12177;SDS011;6152;48.728;9.256;2023-04-25T10:52:42;1.30;;;1.20;;
12177;SDS011;6152;48.728;9.256;2023-04-25T10:55:09;1.23;;;1.08;;
12177;SDS011;6152;48.728;9.256;2023-04-25T10:57:40;1.85;;;0.98;;
12177;SDS011;6152;48.728;9.256;2023-04-25T11:00:15;1.77;;;0.55;;
12177;SDS011;6152;48.728;9.256;2023-04-25T11:02:47;0.93;;;0.63;;
12177;SDS011;6152;48.728;9.256;2023-04-25T11:05:20;0.80;;;0.80;;
12177;SDS011;6152;48.728;9.256;2023-04-25T11:07:59;0.73;;;0.73;;
12177;SDS011;6152;48.728;9.256;2023-04-25T11:10:29;1.30;;;0.70;;
12177;SDS011;6152;48.728;9.256;2023-04-25T11:12:59;1.95;;;1.10;;
12177;SDS011;6152;48.728;9.256;2023-04-25T11:15:26;1.35;;;1.25;;
12177;SDS011;6152;48.728;9.256;2023-04-25T11:17:53;1.38;;;1.27;;
12177;SDS011;6152;48.728;9.256;2023-04-25T11:20:20;2.30;;;2.08;;
12177;SDS011;6152;48.728;9.256;2023-04-25T11:22:47;2.10;;;1.90;;
12177;SDS011;6152;48.728;9.256;2023-04-25T11:25:14;2.30;;;1.90;;
12177;SDS011;6152;48.728;9.256;2023-04-25T11:30:24;1.30;;;1.20;;
12177;SDS011;6152;48.728;9.256;2023-04-25T11:32:51;1.00;;;1.00;;
12177;SDS011;6152;48.728;9.256;2023-04-25T11:35:18;1.30;;;1.20;;
12177;SDS011;6152;48.728;9.256;2023-04-25T11:37:46;1.20;;;1.10;;
12177;SDS011;6152;48.728;9.256;2023-04-25T11:40:12;1.73;;;1.30;;
12177;SDS011;6152;48.728;9.256;2023-04-25T11:42:39;1.10;;;1.00;;
12177;SDS011;6152;48.728;9.256;2023-04-25T11:45:09;1.95;;;1.25;;
12177;SDS011;6152;48.728;9.256;2023-04-25T11:47:36;2.15;;;1.50;;
12177;SDS011;6152;48.728;9.256;2023-04-25T11:50:03;2.47;;;1.23;;
12177;SDS011;6152;48.728;9.256;2023-04-25T11:52:42;2.35;;;1.50;;
12177;SDS011;6152;48.728;9.256;2023-04-25T11:55:12;1.40;;;1.30;;
12177;SDS011;6152;48.728;9.256;2023-04-25T11:57:43;1.38;;;1.27;;
12177;SDS011;6152;48.728;9.256;2023-04-25T12:02:42;1.73;;;1.63;;
12177;SDS011;6152;48.728;9.256;2023-04-25T12:05:09;1.88;;;1.77;;
12177;SDS011;6152;48.728;9.256;2023-04-25T12:07:37;3.17;;;1.80;;
12177;SDS011;6152;48.728;9.256;2023-04-25T12:10:04;3.63;;;2.13;;
12177;SDS011;6152;48.728;9.256;2023-04-25T12:12:35;2.97;;;2.40;;
12177;SDS011;6152;48.728;9.256;2023-04-25T12:15:15;2.53;;;2.33;;
12177;SDS011;6152;48.728;9.256;2023-04-25T12:17:48;2.25;;;2.15;;
12177;SDS011;6152;48.728;9.256;2023-04-25T12:20:16;4.78;;;3.58;;
12177;SDS011;6152;48.728;9.256;2023-04-25T12:22:48;3.30;;;3.00;;
12177;SDS011;6152;48.728;9.256;2023-04-25T12:28:10;3.35;;;3.05;;
12177;SDS011;6152;48.728;9.256;2023-04-25T12:33:22;5.82;;;4.03;;
12177;SDS011;6152;48.728;9.256;2023-04-25T12:35:49;5.15;;;3.53;;
12177;SDS011;6152;48.728;9.256;2023-04-25T12:38:22;5.38;;;3.78;;
12177;SDS011;6152;48.728;9.256;2023-04-25T12:40:52;6.22;;;4.30;;
12177;SDS011;6152;48.728;9.256;2023-04-25T12:43:19;4.55;;;3.72;;
12177;SDS011;6152;48.728;9.256;2023-04-25T12:45:50;3.85;;;3.40;;
12177;SDS011;6152;48.728;9.256;2023-04-25T12:48:17;4.60;;;3.88;;
12177;SDS011;6152;48.728;9.256;2023-04-25T12:50:44;4.82;;;3.35;;
12177;SDS011;6152;48.728;9.256;2023-04-25T12:53:13;6.38;;;4.18;;
12177;SDS011;6152;48.728;9.256;2023-04-25T12:55:39;4.38;;;2.97;;
12177;SDS011;6152;48.728;9.256;2023-04-25T12:58:05;4.05;;;3.60;;
12177;SDS011;6152;48.728;9.256;2023-04-25T13:00:31;5.05;;;3.67;;
12177;SDS011;6152;48.728;9.256;2023-04-25T13:02:58;3.72;;;3.17;;
12177;SDS011;6152;48.728;9.256;2023-04-25T13:05:24;3.65;;;3.05;;
12177;SDS011;6152;48.728;9.256;2023-04-25T13:07:51;4.25;;;3.58;;
12177;SDS011;6152;48.728;9.256;2023-04-25T13:10:17;6.38;;;3.70;;
12177;SDS011;6152;48.728;9.256;2023-04-25T13:12:43;4.43;;;3.75;;
12177;SDS011;6152;48.728;9.256;2023-04-25T13:15:10;5.53;;;4.05;;
12177;SDS011;6152;48.728;9.256;2023-04-25T13:17:37;6.50;;;3.63;;
12177;SDS011;6152;48.728;9.256;2023-04-25T13:20:04;5.32;;;3.40;;
12177;SDS011;6152;48.728;9.256;2023-04-25T13:22:33;4.70;;;3.35;;
12177;SDS011;6152;48.728;9.256;2023-04-25T13:25:03;5.25;;;4.00;;
12177;SDS011;6152;48.728;9.256;2023-04-25T13:27:31;4.72;;;3.80;;
12177;SDS011;6152;48.728;9.256;2023-04-25T13:29:59;4.88;;;3.47;;
12177;SDS011;6152;48.728;9.256;2023-04-25T13:32:32;4.65;;;3.30;;
12177;SDS011;6152;48.728;9.256;2023-04-25T13:35:01;5.07;;;3.67;;
12177;SDS011;6152;48.728;9.256;2023-04-25T13:37:28;4.15;;;3.40;;
12177;SDS011;6152;48.728;9.256;2023-04-25T13:39:55;3.88;;;3.53;;
12177;SDS011;6152;48.728;9.256;2023-04-25T13:42:21;5.05;;;4.00;;
12177;SDS011;6152;48.728;9.256;2023-04-25T13:44:48;4.05;;;3.30;;
12177;SDS011;6152;48.728;9.256;2023-04-25T13:47:14;5.18;;;3.20;;
12177;SDS011;6152;48.728;9.256;2023-04-25T13:49:40;5.22;;;3.33;;
12177;SDS011;6152;48.728;9.256;2023-04-25T13:52:06;5.10;;;3.65;;
12177;SDS011;6152;48.728;9.256;2023-04-25T13:54:32;5.60;;;3.60;;
12177;SDS011;6152;48.728;9.256;2023-04-25T13:56:59;5.22;;;3.55;;
12177;SDS011;6152;48.728;9.256;2023-04-25T13:59:25;5.40;;;4.40;;
12177;SDS011;6152;48.728;9.256;2023-04-25T14:01:52;3.95;;;3.38;;
12177;SDS011;6152;48.728;9.256;2023-04-25T14:04:18;3.97;;;3.60;;
12177;SDS011;6152;48.728;9.256;2023-04-25T14:06:44;4.97;;;3.78;;
12177;SDS011;6152;48.728;9.256;2023-04-25T14:09:10;4.53;;;4.00;;
12177;SDS011;6152;48.728;9.256;2023-04-25T14:11:38;4.85;;;3.85;;
12177;SDS011;6152;48.728;9.256;2023-04-25T14:14:04;4.70;;;3.42;;
12177;SDS011;6152;48.728;9.256;2023-04-25T14:16:30;6.10;;;4.80;;
12177;SDS011;6152;48.728;9.256;2023-04-25T14:19:00;6.82;;;4.45;;
12177;SDS011;6152;48.728;9.256;2023-04-25T14:21:26;5.97;;;5.00;;
12177;SDS011;6152;48.728;9.256;2023-04-25T14:23:53;7.63;;;5.78;;
12177;SDS011;6152;48.728;9.256;2023-04-25T14:26:20;5.15;;;4.50;;
12177;SDS011;6152;48.728;9.256;2023-04-25T14:28:46;5.55;;;5.05;;
12177;SDS011;6152;48.728;9.256;2023-04-25T14:31:12;9.25;;;5.40;;
12177;SDS011;6152;48.728;9.256;2023-04-25T14:33:38;6.53;;;5.38;;
12177;SDS011;6152;48.728;9.256;2023-04-25T14:36:07;7.18;;;5.03;;
12177;SDS011;6152;48.728;9.256;2023-04-25T14:38:33;5.80;;;4.63;;
12177;SDS011;6152;48.728;9.256;2023-04-25T14:40:59;6.50;;;5.57;;
12177;SDS011;6152;48.728;9.256;2023-04-25T14:43:25;9.40;;;5.00;;
12177;SDS011;6152;48.728;9.256;2023-04-25T14:45:52;6.30;;;5.13;;
12177;SDS011;6152;48.728;9.256;2023-04-25T14:48:18;7.57;;;4.55;;
12177;SDS011;6152;48.728;9.256;2023-04-25T14:50:45;5.32;;;4.40;;
12177;SDS011;6152;48.728;9.256;2023-04-25T14:53:11;6.68;;;4.53;;
12177;SDS011;6152;48.728;9.256;2023-04-25T14:55:38;6.18;;;4.53;;
12177;SDS011;6152;48.728;9.256;2023-04-25T14:58:05;5.45;;;4.50;;
12177;SDS011;6152;48.728;9.256;2023-04-25T15:00:31;5.00;;;4.15;;
12177;SDS011;6152;48.728;9.256;2023-04-25T15:02:58;4.13;;;3.72;;
12177;SDS011;6152;48.728;9.256;2023-04-25T15:05:24;5.68;;;4.05;;
12177;SDS011;6152;48.728;9.256;2023-04-25T15:07:51;4.70;;;4.07;;
12177;SDS011;6152;48.728;9.256;2023-04-25T15:10:17;6.40;;;3.80;;
12177;SDS011;6152;48.728;9.256;2023-04-25T15:12:44;3.92;;;3.53;;
12177;SDS011;6152;48.728;9.256;2023-04-25T15:15:10;4.20;;;3.55;;
12177;SDS011;6152;48.728;9.256;2023-04-25T15:17:40;4.93;;;3.83;;